createdAt,value
2023-01-13T00:00:26.629Z,4.80
2023-01-13T00:05:49.185Z,4.90
2023-01-13T00:10:51.727Z,5.00
2023-01-13T00:15:59.389Z,5.00
2023-01-13T00:21:04.101Z,5.00
2023-01-13T00:26:16.567Z,4.80
2023-01-13T00:31:21.208Z,5.00
2023-01-13T00:36:23.828Z,5.30
2023-01-13T00:41:27.301Z,5.10
2023-01-13T00:46:30.015Z,5.90
2023-01-13T00:51:32.711Z,5.60
2023-01-13T00:56:40.264Z,5.70
2023-01-13T01:01:43.670Z,5.70
2023-01-13T01:06:46.323Z,5.50
2023-01-13T01:11:48.943Z,5.20
2023-01-13T01:16:51.579Z,6.00
2023-01-13T01:21:54.941Z,5.70
2023-01-13T01:26:59.698Z,5.60
2023-01-13T01:32:02.292Z,6.10
2023-01-13T01:37:05.264Z,6.40
2023-01-13T01:42:18.403Z,6.20
2023-01-13T01:47:22.552Z,6.00
2023-01-13T01:52:32.925Z,6.40
2023-01-13T01:57:42.874Z,7.00
2023-01-13T02:02:50.483Z,6.60
2023-01-13T02:07:56.790Z,5.90
2023-01-13T02:13:03.709Z,5.60
2023-01-13T02:18:07.443Z,5.20
2023-01-13T02:23:31.864Z,5.60
2023-01-13T02:29:06.590Z,4.40
2023-01-13T02:34:10.982Z,4.90
2023-01-13T02:39:19.338Z,5.00
2023-01-13T02:44:28.588Z,5.20
2023-01-13T02:49:38.183Z,4.10
2023-01-13T02:54:47.248Z,4.00
2023-01-13T02:59:52.257Z,3.70
2023-01-13T03:04:58.447Z,3.30
2023-01-13T03:10:19.616Z,3.10
2023-01-13T03:15:28.354Z,2.90
2023-01-13T03:20:36.020Z,3.60
2023-01-13T03:25:49.466Z,3.10
2023-01-13T03:30:58.762Z,3.40
2023-01-13T03:36:07.963Z,2.40
2023-01-13T03:41:16.915Z,2.70
2023-01-13T03:46:28.155Z,3.40
2023-01-13T03:51:34.833Z,3.40
2023-01-13T03:56:45.522Z,3.70
2023-01-13T04:01:54.419Z,4.00
2023-01-13T04:07:20.123Z,4.20
2023-01-13T04:12:48.646Z,4.10
2023-01-13T04:17:51.937Z,3.40
2023-01-13T04:22:54.476Z,4.10
2023-01-13T04:27:57.040Z,4.60
2023-01-13T04:33:01.756Z,4.30
2023-01-13T04:38:14.513Z,4.40
2023-01-13T04:43:17.314Z,4.00
2023-01-13T04:48:19.836Z,4.50
2023-01-13T04:53:22.408Z,5.50
2023-01-13T04:58:24.944Z,5.50
2023-01-13T05:03:27.448Z,5.70
2023-01-13T05:08:29.984Z,4.90
2023-01-13T05:13:35.426Z,5.40
2023-01-13T05:18:38.049Z,4.80
2023-01-13T05:23:43.528Z,5.10
2023-01-13T05:28:48.712Z,5.10
2023-01-13T05:33:53.490Z,5.30
2023-01-13T05:38:56.020Z,5.60
2023-01-13T05:43:58.589Z,5.00
2023-01-13T05:49:01.621Z,4.90
2023-01-13T05:54:04.191Z,4.70
2023-01-13T05:59:07.105Z,4.90
2023-01-13T06:04:09.650Z,5.20
2023-01-13T06:09:12.237Z,4.00
2023-01-13T06:14:15.198Z,5.40
2023-01-13T06:19:17.745Z,5.00
2023-01-13T06:24:20.350Z,4.00
2023-01-13T06:29:22.867Z,4.70
2023-01-13T06:34:25.574Z,3.90
2023-01-13T06:39:31.009Z,4.70
2023-01-13T06:44:33.572Z,4.10
2023-01-13T06:49:36.145Z,4.40
2023-01-13T06:54:38.746Z,4.60
2023-01-13T06:59:41.278Z,4.60
2023-01-13T07:04:45.063Z,4.50
2023-01-13T07:09:47.594Z,4.90
2023-01-13T07:14:53.073Z,5.10
2023-01-13T07:19:55.683Z,4.50
2023-01-13T07:24:58.270Z,5.90
2023-01-13T07:30:00.780Z,5.40
2023-01-13T07:35:06.739Z,6.60
2023-01-13T07:41:19.443Z,6.60
2023-01-13T07:46:21.996Z,6.90
2023-01-13T07:51:24.803Z,4.90
2023-01-13T07:56:27.412Z,6.10
2023-01-13T08:01:31.810Z,5.70
2023-01-13T08:06:36.329Z,5.10
2023-01-13T08:11:38.849Z,5.60
2023-01-13T08:16:41.389Z,5.70
2023-01-13T08:21:44.012Z,5.80
2023-01-13T08:26:46.594Z,6.00
2023-01-13T08:31:49.257Z,5.80
2023-01-13T08:36:51.851Z,6.30
2023-01-13T08:41:55.406Z,6.60
2023-01-13T08:47:00.748Z,6.20
2023-01-13T08:52:03.974Z,5.10
2023-01-13T08:57:07.099Z,7.00
2023-01-13T09:02:14.204Z,6.00
2023-01-13T09:07:17.476Z,6.20
2023-01-13T09:12:22.969Z,6.40
2023-01-13T09:17:25.797Z,7.20
2023-01-13T09:22:28.499Z,7.50
2023-01-13T09:27:31.268Z,6.50
2023-01-13T09:32:35.222Z,6.40
2023-01-13T09:37:39.821Z,6.80
2023-01-13T09:42:49.215Z,6.40
2023-01-13T09:47:56.527Z,6.10
2023-01-13T09:53:00.544Z,6.70
2023-01-13T09:58:12.363Z,8.30
2023-01-13T10:03:21.324Z,5.10
2023-01-13T10:09:08.091Z,6.30
2023-01-13T10:19:25.805Z,7.00
2023-01-13T10:24:35.433Z,6.60
2023-01-13T10:29:38.071Z,5.00
2023-01-13T10:34:48.815Z,4.40
2023-01-13T10:39:55.174Z,5.70
2023-01-13T10:45:00.372Z,4.50
2023-01-13T10:50:05.167Z,4.70
2023-01-13T10:55:13.551Z,4.50
2023-01-13T11:00:22.818Z,4.50
2023-01-13T11:05:27.803Z,4.70
2023-01-13T11:10:32.543Z,5.70
2023-01-13T11:15:57.995Z,5.50
2023-01-13T11:21:04.888Z,5.00
2023-01-13T11:26:16.553Z,5.10
2023-01-13T11:31:24.616Z,4.80
2023-01-13T11:36:34.534Z,5.40
2023-01-13T11:41:43.410Z,6.50
2023-01-13T11:46:49.735Z,5.80
2023-01-13T11:52:04.135Z,6.40
2023-01-13T11:57:10.606Z,5.20
2023-01-13T12:02:21.903Z,5.30
2023-01-13T12:07:39.889Z,5.20
2023-01-13T12:12:53.883Z,6.80
2023-01-13T12:17:59.444Z,6.00
2023-01-13T12:23:08.298Z,5.50
2023-01-13T12:28:17.170Z,5.40
2023-01-13T12:33:28.016Z,5.30
2023-01-13T12:38:34.586Z,5.40
2023-01-13T12:43:44.196Z,6.40
2023-01-13T12:48:54.868Z,6.90
2023-01-13T12:53:59.012Z,5.90
2023-01-13T12:59:07.563Z,6.40
2023-01-13T13:04:17.596Z,6.10
2023-01-13T13:09:23.042Z,7.30
2023-01-13T13:14:33.785Z,7.00
2023-01-13T13:19:36.290Z,6.30
2023-01-13T13:24:40.173Z,5.90
2023-01-13T13:29:45.604Z,6.90
2023-01-13T13:34:54.034Z,6.50
2023-01-13T13:40:00.207Z,7.60
2023-01-13T13:45:17.420Z,6.50
2023-01-13T13:50:20.827Z,6.70
2023-01-13T13:55:26.923Z,7.70
2023-01-13T14:00:33.204Z,8.10
2023-01-13T14:05:37.252Z,8.00
2023-01-13T14:10:40.947Z,8.20
2023-01-13T14:15:44.803Z,7.50
2023-01-13T14:20:53.543Z,8.10
2023-01-13T14:26:02.473Z,8.30
2023-01-13T14:31:08.496Z,8.90
2023-01-13T14:36:15.353Z,8.20
2023-01-13T14:41:19.993Z,8.80
2023-01-13T14:46:25.379Z,8.10
2023-01-13T14:51:30.347Z,7.40
2023-01-13T14:56:37.625Z,8.00
2023-01-13T15:01:40.345Z,7.60
2023-01-13T15:06:46.812Z,7.50
2023-01-13T15:11:49.426Z,10.20
2023-01-13T15:16:52.071Z,13.80
2023-01-13T15:21:54.632Z,21.50
2023-01-13T15:26:57.165Z,15.60
2023-01-13T15:32:02.312Z,19.80
2023-01-13T15:37:04.937Z,13.60
2023-01-13T15:42:14.736Z,8.90
2023-01-13T15:47:19.406Z,8.10
2023-01-13T15:52:24.679Z,7.90
2023-01-13T15:57:30.280Z,8.60
2023-01-13T16:02:32.869Z,9.10
2023-01-13T16:07:35.476Z,8.60
2023-01-13T16:12:38.070Z,8.70
2023-01-13T16:17:42.413Z,9.10
2023-01-13T16:22:45.326Z,8.70
2023-01-13T16:27:48.280Z,8.70
2023-01-13T16:32:51.721Z,7.90
2023-01-13T16:37:58.209Z,8.10
2023-01-13T16:43:03.353Z,7.90
2023-01-13T16:48:10.087Z,7.10
2023-01-13T16:53:12.617Z,8.00
2023-01-13T16:58:20.151Z,6.50
2023-01-13T17:03:22.807Z,6.20
2023-01-13T17:08:25.415Z,7.10
2023-01-13T17:13:28.178Z,5.20
2023-01-13T17:18:30.723Z,5.10
2023-01-13T17:23:33.420Z,6.00
2023-01-13T17:28:35.997Z,5.70
2023-01-13T17:33:38.529Z,5.20
2023-01-13T17:38:41.662Z,6.00
2023-01-13T17:43:44.299Z,5.00
2023-01-13T17:48:47.371Z,5.30
2023-01-13T17:53:49.967Z,6.00
2023-01-13T17:58:52.498Z,4.80
2023-01-13T18:03:55.175Z,5.80
2023-01-13T18:08:59.520Z,5.10
2023-01-13T18:14:02.342Z,5.20
2023-01-13T18:19:10.969Z,4.30
2023-01-13T18:24:19.528Z,4.40
2023-01-13T18:30:32.413Z,3.90
2023-01-13T18:35:38.364Z,5.70
2023-01-13T18:40:46.236Z,5.30
2023-01-13T18:45:51.253Z,5.60
2023-01-13T18:50:53.825Z,6.60
2023-01-13T18:55:56.387Z,7.40
2023-01-13T19:01:01.612Z,6.30
2023-01-13T19:06:05.962Z,6.90
2023-01-13T19:11:08.501Z,4.80
2023-01-13T19:16:15.906Z,4.90
2023-01-13T19:21:18.543Z,4.70
2023-01-13T19:26:21.500Z,5.90
2023-01-13T19:31:24.167Z,5.60
2023-01-13T19:36:26.932Z,5.10
2023-01-13T19:41:32.413Z,5.60
2023-01-13T19:46:34.994Z,5.00
2023-01-13T19:51:37.641Z,4.50
2023-01-13T19:56:40.195Z,5.30
2023-01-13T20:01:42.899Z,5.60
2023-01-13T20:06:46.363Z,6.00
2023-01-13T20:11:52.421Z,4.00
2023-01-13T20:16:55.011Z,5.80
2023-01-13T20:21:58.014Z,3.90
2023-01-13T20:27:01.513Z,4.60
2023-01-13T20:32:04.354Z,5.30
2023-01-13T20:37:06.910Z,4.60
2023-01-13T20:42:12.964Z,5.40
2023-01-13T20:52:18.449Z,5.50
2023-01-13T20:57:21.040Z,6.00
2023-01-13T21:02:25.246Z,3.90
2023-01-13T21:07:28.233Z,5.20
2023-01-13T21:12:33.680Z,5.40
2023-01-13T21:17:41.330Z,6.60
2023-01-13T21:22:46.735Z,5.60
2023-01-13T21:27:53.513Z,6.20
2023-01-13T21:33:00.651Z,6.50
2023-01-13T21:38:03.238Z,5.60
2023-01-13T21:43:08.777Z,6.00
2023-01-13T21:48:11.669Z,4.70
2023-01-13T21:53:14.201Z,7.00
2023-01-13T21:58:19.067Z,6.30
2023-01-13T22:03:21.677Z,6.40
2023-01-13T22:08:24.418Z,6.10
2023-01-13T22:13:30.421Z,6.90
2023-01-13T22:18:32.963Z,7.10
2023-01-13T22:24:13.512Z,6.40
2023-01-13T22:29:16.362Z,6.60
2023-01-13T22:34:19.075Z,5.30
2023-01-13T22:39:21.598Z,5.00
2023-01-13T22:44:24.544Z,5.20
2023-01-13T22:49:27.211Z,5.00
2023-01-13T22:54:31.935Z,4.30
2023-01-13T22:59:36.762Z,5.10
2023-01-13T23:04:39.362Z,5.20
2023-01-13T23:09:41.904Z,5.20
2023-01-13T23:14:44.457Z,4.20
2023-01-13T23:19:46.955Z,3.60
2023-01-13T23:24:49.449Z,3.80
2023-01-13T23:29:51.974Z,4.10
2023-01-13T23:34:54.501Z,4.50
2023-01-13T23:39:57.027Z,3.70
2023-01-13T23:44:59.585Z,2.30
2023-01-13T23:50:02.365Z,3.90
2023-01-13T23:55:05.258Z,3.10
